createdAt,value
2017-09-16T00:01:03.064Z,88.24
2017-09-16T00:03:30.686Z,87.95
2017-09-16T00:05:58.297Z,87.67
2017-09-16T00:08:25.934Z,87.73
2017-09-16T00:10:53.522Z,87.71
2017-09-16T00:13:21.283Z,87.75
2017-09-16T00:15:48.887Z,88.09
2017-09-16T00:18:16.518Z,88.62
2017-09-16T00:20:44.103Z,88.90
2017-09-16T00:23:11.718Z,88.92
2017-09-16T00:25:39.463Z,89.22
2017-09-16T00:28:07.086Z,89.85
2017-09-16T00:30:34.687Z,89.70
2017-09-16T00:33:02.311Z,89.34
2017-09-16T00:35:30.054Z,89.16
2017-09-16T00:37:57.870Z,88.68
2017-09-16T00:40:25.470Z,88.67
2017-09-16T00:42:53.099Z,88.86
2017-09-16T00:45:20.709Z,89.23
2017-09-16T00:47:48.328Z,89.97
2017-09-16T00:50:15.970Z,90.47
2017-09-16T00:52:43.584Z,90.68
2017-09-16T00:55:11.179Z,91.29
2017-09-16T00:57:38.811Z,91.49
2017-09-16T01:00:06.554Z,91.43
2017-09-16T01:02:34.187Z,91.24
2017-09-16T01:05:01.882Z,91.25
2017-09-16T01:07:29.498Z,90.93
2017-09-16T01:09:57.098Z,90.99
2017-09-16T01:12:24.705Z,91.53
2017-09-16T01:14:52.331Z,91.61
2017-09-16T01:17:19.919Z,91.15
2017-09-16T01:19:47.544Z,90.48
2017-09-16T01:22:15.160Z,89.93
2017-09-16T01:24:42.784Z,90.30
2017-09-16T01:27:10.410Z,90.37
2017-09-16T01:29:38.020Z,90.43
2017-09-16T01:32:05.685Z,90.41
2017-09-16T01:34:33.314Z,89.66
2017-09-16T01:37:00.888Z,89.65
2017-09-16T01:39:28.503Z,89.17
2017-09-16T01:41:56.103Z,88.64
2017-09-16T01:44:23.714Z,88.44
2017-09-16T01:46:51.314Z,88.78
2017-09-16T01:49:18.943Z,89.44
2017-09-16T01:51:46.540Z,89.89
2017-09-16T01:54:14.143Z,90.09
2017-09-16T01:56:41.778Z,89.57
2017-09-16T01:59:09.361Z,89.15
2017-09-16T02:01:36.999Z,89.25
2017-09-16T02:04:04.606Z,89.91
2017-09-16T02:06:32.270Z,89.76
2017-09-16T02:08:59.879Z,89.72
2017-09-16T02:11:27.499Z,89.12
2017-09-16T02:13:55.271Z,88.86
2017-09-16T02:16:23.019Z,88.79
2017-09-16T02:18:50.622Z,88.61
2017-09-16T02:21:18.251Z,88.75
2017-09-16T02:23:45.846Z,88.89
2017-09-16T02:26:13.482Z,89.33
2017-09-16T02:28:41.067Z,89.27
2017-09-16T02:31:08.683Z,89.06
2017-09-16T02:33:36.280Z,88.54
2017-09-16T02:36:03.899Z,88.13
2017-09-16T02:38:31.513Z,88.18
2017-09-16T02:40:59.135Z,87.68
2017-09-16T02:43:26.727Z,87.93
2017-09-16T02:45:54.537Z,88.08
2017-09-16T02:48:22.142Z,87.64
2017-09-16T02:50:49.730Z,87.71
2017-09-16T02:53:17.347Z,87.50
2017-09-16T02:55:44.938Z,86.89
2017-09-16T02:58:12.638Z,86.41
2017-09-16T03:00:40.227Z,86.74
2017-09-16T03:03:07.891Z,87.14
2017-09-16T03:05:35.540Z,87.35
2017-09-16T03:08:03.180Z,87.19
2017-09-16T03:10:30.865Z,87.12
2017-09-16T03:12:58.538Z,87.35
2017-09-16T03:15:26.239Z,87.47
2017-09-16T03:17:53.953Z,87.86
2017-09-16T03:20:21.547Z,87.48
2017-09-16T03:22:49.187Z,87.61
2017-09-16T03:25:16.889Z,87.91
2017-09-16T03:27:44.538Z,88.57
2017-09-16T03:30:12.183Z,89.11
2017-09-16T03:32:39.770Z,89.03
2017-09-16T03:35:07.395Z,88.94
2017-09-16T03:37:35.042Z,88.82
2017-09-16T03:40:02.860Z,88.87
2017-09-16T03:42:30.533Z,88.66
2017-09-16T03:44:58.179Z,88.20
2017-09-16T03:47:25.849Z,88.37
2017-09-16T03:49:53.579Z,88.40
2017-09-16T03:52:21.252Z,89.33
2017-09-16T03:54:49.023Z,90.23
2017-09-16T03:57:16.674Z,90.48
2017-09-16T03:59:44.355Z,90.75
2017-09-16T04:02:23.755Z,90.85
2017-09-16T04:04:51.455Z,90.30
2017-09-16T04:07:19.077Z,89.99
2017-09-16T04:09:46.730Z,89.88
2017-09-16T04:12:14.349Z,89.61
2017-09-16T04:14:42.114Z,89.54
2017-09-16T04:17:09.706Z,89.23
2017-09-16T04:19:37.375Z,88.90
2017-09-16T04:22:04.985Z,88.99
2017-09-16T04:24:32.944Z,88.53
2017-09-16T04:27:00.543Z,88.29
2017-09-16T04:29:28.151Z,88.13
2017-09-16T04:31:55.817Z,88.10
2017-09-16T04:34:23.856Z,87.96
2017-09-16T04:36:52.485Z,87.86
2017-09-16T04:39:20.201Z,88.04
2017-09-16T04:41:48.130Z,88.02
2017-09-16T04:44:16.591Z,87.88
2017-09-16T04:46:44.369Z,88.15
2017-09-16T04:49:12.156Z,88.29
2017-09-16T04:51:40.195Z,88.35
2017-09-16T04:54:07.965Z,87.99
2017-09-16T04:56:35.681Z,88.00
2017-09-16T04:59:04.054Z,87.89
2017-09-16T05:01:31.723Z,87.81
2017-09-16T05:04:00.137Z,88.16
2017-09-16T05:06:28.031Z,87.57
2017-09-16T05:08:55.664Z,87.60
2017-09-16T05:11:24.216Z,87.47
2017-09-16T05:13:51.916Z,87.34
2017-09-16T05:16:20.248Z,87.52
2017-09-16T05:18:47.908Z,87.92
2017-09-16T05:21:15.942Z,88.28
2017-09-16T05:23:45.835Z,88.32
2017-09-16T05:26:13.631Z,88.62
2017-09-16T05:28:41.536Z,88.71
2017-09-16T05:31:10.099Z,88.72
2017-09-16T05:33:37.748Z,88.60
2017-09-16T05:36:05.425Z,88.57
2017-09-16T05:38:33.112Z,88.27
2017-09-16T05:41:01.576Z,88.07
2017-09-16T05:43:29.216Z,87.58
2017-09-16T05:45:56.971Z,87.61
2017-09-16T05:48:26.014Z,87.64
2017-09-16T05:50:54.622Z,87.79
2017-09-16T05:53:23.396Z,87.99
2017-09-16T05:55:51.174Z,88.24
2017-09-16T05:58:20.519Z,88.43
2017-09-16T06:00:48.268Z,88.59
2017-09-16T06:03:16.285Z,88.73
2017-09-16T06:05:44.820Z,89.07
2017-09-16T06:08:12.465Z,89.91
2017-09-16T06:10:40.904Z,90.53
2017-09-16T06:13:08.567Z,91.06
2017-09-16T06:15:36.945Z,91.38
2017-09-16T06:18:05.339Z,91.77
2017-09-16T06:20:32.934Z,92.02
2017-09-16T06:23:00.587Z,91.98
2017-09-16T06:25:28.182Z,91.92
2017-09-16T06:27:55.809Z,92.03
2017-09-16T06:30:23.407Z,92.17
2017-09-16T06:32:51.028Z,92.24
2017-09-16T06:35:18.624Z,92.31
2017-09-16T06:37:46.324Z,92.22
2017-09-16T06:40:13.928Z,91.68
2017-09-16T06:42:41.542Z,91.65
2017-09-16T06:45:09.158Z,90.78
2017-09-16T06:47:36.787Z,90.52
2017-09-16T06:50:04.616Z,90.39
2017-09-16T06:52:32.403Z,90.27
2017-09-16T06:55:00.034Z,89.84
2017-09-16T06:57:27.659Z,90.38
2017-09-16T06:59:55.284Z,90.39
2017-09-16T07:02:22.974Z,90.98
2017-09-16T07:04:50.564Z,90.76
2017-09-16T07:07:18.264Z,90.87
2017-09-16T07:09:45.886Z,90.34
2017-09-16T07:12:13.561Z,90.30
2017-09-16T07:14:41.205Z,90.73
2017-09-16T07:17:08.893Z,90.50
2017-09-16T07:19:36.651Z,90.27
2017-09-16T07:22:04.287Z,90.09
2017-09-16T07:24:31.929Z,89.78
2017-09-16T07:26:59.581Z,89.20
2017-09-16T07:29:27.359Z,88.89
2017-09-16T07:31:55.029Z,88.28
2017-09-16T07:34:22.656Z,88.43
2017-09-16T07:36:50.300Z,88.55
2017-09-16T07:39:17.986Z,88.18
2017-09-16T07:41:45.656Z,88.00
2017-09-16T07:44:13.336Z,88.00
2017-09-16T07:46:40.972Z,88.03
2017-09-16T07:49:08.663Z,88.03
2017-09-16T07:51:36.302Z,87.44
2017-09-16T07:54:03.898Z,86.60
2017-09-16T07:56:31.530Z,86.67
2017-09-16T07:58:59.152Z,87.21
2017-09-16T08:01:26.747Z,86.91
2017-09-16T08:03:54.380Z,86.25
2017-09-16T08:06:21.972Z,85.60
2017-09-16T08:08:49.595Z,84.72
2017-09-16T08:11:19.036Z,85.50
2017-09-16T08:13:46.651Z,84.50
2017-09-16T08:16:14.276Z,83.81
2017-09-16T08:18:42.043Z,83.96
2017-09-16T08:21:09.637Z,83.25
2017-09-16T08:23:37.255Z,83.53
2017-09-16T08:26:04.854Z,83.07
2017-09-16T08:28:32.498Z,83.42
2017-09-16T08:31:00.461Z,82.48
2017-09-16T08:33:28.140Z,82.14
2017-09-16T08:35:55.990Z,82.14
2017-09-16T08:38:23.682Z,81.95
2017-09-16T08:40:51.402Z,81.97
2017-09-16T08:43:19.067Z,80.98
2017-09-16T08:45:47.264Z,81.86
2017-09-16T08:48:14.868Z,79.91
2017-09-16T08:50:42.521Z,79.40
2017-09-16T08:53:10.132Z,79.42
2017-09-16T08:55:37.791Z,79.23
2017-09-16T08:58:05.407Z,78.67
2017-09-16T09:00:33.039Z,79.58
2017-09-16T09:03:00.645Z,79.19
2017-09-16T09:05:28.603Z,79.21
2017-09-16T09:07:56.613Z,79.39
2017-09-16T09:10:24.481Z,78.69
2017-09-16T09:12:52.256Z,76.86
2017-09-16T09:15:20.065Z,75.80
2017-09-16T09:17:47.835Z,76.13
2017-09-16T09:20:15.555Z,75.97
2017-09-16T09:22:43.301Z,76.76
2017-09-16T09:25:11.128Z,76.29
2017-09-16T09:27:39.003Z,76.86
2017-09-16T09:30:06.829Z,73.68
2017-09-16T09:32:34.686Z,71.62
2017-09-16T09:35:02.387Z,72.44
2017-09-16T09:37:30.003Z,73.42
2017-09-16T09:39:57.674Z,71.54
2017-09-16T09:42:25.278Z,71.47
2017-09-16T09:44:52.946Z,69.53
2017-09-16T09:47:20.571Z,69.33
2017-09-16T09:49:48.196Z,68.85
2017-09-16T09:52:15.826Z,68.89
2017-09-16T09:54:43.448Z,68.37
2017-09-16T09:57:11.057Z,67.94
2017-09-16T09:59:38.683Z,66.28
2017-09-16T10:02:06.290Z,67.00
2017-09-16T10:04:33.930Z,66.03
2017-09-16T10:07:01.553Z,66.14
2017-09-16T10:09:29.223Z,65.15
2017-09-16T10:11:57.143Z,64.98
2017-09-16T10:14:24.959Z,64.17
2017-09-16T10:16:52.739Z,62.39
2017-09-16T10:19:20.441Z,63.08
2017-09-16T10:21:48.508Z,63.87
2017-09-16T10:24:16.492Z,64.64
2017-09-16T10:26:44.182Z,63.86
2017-09-16T10:29:13.030Z,62.80
2017-09-16T10:31:41.144Z,61.38
2017-09-16T10:34:09.075Z,60.63
2017-09-16T10:36:36.703Z,58.10
2017-09-16T10:39:04.503Z,58.25
2017-09-16T10:41:32.179Z,60.29
2017-09-16T10:43:59.788Z,61.35
2017-09-16T10:46:27.442Z,60.33
2017-09-16T10:48:55.100Z,59.18
2017-09-16T10:51:22.894Z,58.26
2017-09-16T10:53:50.506Z,56.83
2017-09-16T10:56:18.324Z,56.16
2017-09-16T10:58:46.066Z,56.31
2017-09-16T11:01:13.695Z,55.84
2017-09-16T11:03:41.288Z,57.23
2017-09-16T11:06:08.922Z,58.21
2017-09-16T11:08:36.782Z,58.58
2017-09-16T11:11:04.466Z,57.74
2017-09-16T11:13:32.058Z,54.97
2017-09-16T11:15:59.691Z,55.54
2017-09-16T11:18:27.301Z,56.32
2017-09-16T11:20:54.939Z,56.78
2017-09-16T11:23:22.881Z,57.36
2017-09-16T11:25:50.510Z,58.67
2017-09-16T11:28:18.131Z,58.46
2017-09-16T11:30:45.749Z,57.42
2017-09-16T11:33:13.389Z,56.02
2017-09-16T11:35:41.024Z,54.08
2017-09-16T11:38:08.642Z,53.79
2017-09-16T11:40:36.239Z,51.97
2017-09-16T11:43:03.891Z,51.88
2017-09-16T11:45:31.494Z,51.56
2017-09-16T11:47:59.142Z,53.40
2017-09-16T11:50:26.759Z,53.67
2017-09-16T11:52:54.429Z,53.58
2017-09-16T11:55:22.044Z,53.96
2017-09-16T11:57:49.662Z,55.51
2017-09-16T12:00:17.278Z,56.43
2017-09-16T12:02:44.927Z,58.40
2017-09-16T12:05:12.554Z,56.54
2017-09-16T12:07:40.187Z,57.06
2017-09-16T12:10:07.831Z,58.10
2017-09-16T12:12:35.463Z,56.61
2017-09-16T12:15:03.053Z,58.74
2017-09-16T12:17:30.702Z,55.20
2017-09-16T12:19:58.330Z,54.56
2017-09-16T12:22:25.974Z,56.24
2017-09-16T12:24:53.578Z,56.30
2017-09-16T12:27:21.162Z,55.77
2017-09-16T12:29:48.791Z,57.15
2017-09-16T12:32:16.395Z,56.97
2017-09-16T12:34:44.021Z,58.79
2017-09-16T12:37:11.671Z,58.49
2017-09-16T12:39:39.294Z,58.99
2017-09-16T12:42:06.888Z,59.07
2017-09-16T12:44:34.522Z,60.10
2017-09-16T12:47:02.114Z,58.57
2017-09-16T12:49:29.775Z,59.07
2017-09-16T12:51:57.371Z,58.92
2017-09-16T12:54:25.034Z,59.29
2017-09-16T12:56:52.741Z,57.90
2017-09-16T12:59:20.427Z,56.30
2017-09-16T13:01:48.054Z,52.66
2017-09-16T13:04:15.807Z,51.81
2017-09-16T13:06:44.434Z,50.90
2017-09-16T13:09:12.087Z,50.15
2017-09-16T13:11:39.767Z,49.02
2017-09-16T13:14:07.430Z,50.21
2017-09-16T13:16:35.057Z,48.98
2017-09-16T13:19:02.725Z,48.60
2017-09-16T13:21:30.330Z,49.07
2017-09-16T13:23:57.955Z,48.01
2017-09-16T13:26:25.570Z,49.17
2017-09-16T13:28:53.207Z,49.37
2017-09-16T13:31:20.820Z,50.25
2017-09-16T13:33:48.434Z,49.22
2017-09-16T13:36:16.103Z,50.65
2017-09-16T13:38:43.827Z,50.50
2017-09-16T13:41:11.515Z,50.55
2017-09-16T13:43:39.245Z,50.57
2017-09-16T13:46:06.940Z,50.82
2017-09-16T13:48:34.586Z,52.42
2017-09-16T13:51:02.261Z,52.44
2017-09-16T13:53:29.938Z,52.48
2017-09-16T13:55:57.684Z,51.74
2017-09-16T13:58:26.315Z,53.03
2017-09-16T14:00:53.967Z,50.34
2017-09-16T14:03:21.570Z,50.50
2017-09-16T14:05:49.228Z,51.33
2017-09-16T14:08:16.838Z,52.29
2017-09-16T14:10:44.656Z,52.46
2017-09-16T14:13:12.251Z,51.74
2017-09-16T14:15:39.887Z,51.43
2017-09-16T14:18:07.492Z,49.49
2017-09-16T14:20:35.142Z,50.24
2017-09-16T14:23:02.738Z,47.16
2017-09-16T14:25:30.431Z,46.44
2017-09-16T14:27:58.048Z,45.96
2017-09-16T14:30:25.679Z,45.83
2017-09-16T14:32:53.365Z,47.56
2017-09-16T14:35:21.053Z,48.05
2017-09-16T14:37:48.670Z,46.59
2017-09-16T14:40:16.326Z,45.16
2017-09-16T14:42:43.983Z,45.54
2017-09-16T14:45:11.609Z,48.25
2017-09-16T14:47:39.428Z,48.54
2017-09-16T14:50:07.042Z,49.16
2017-09-16T14:52:34.677Z,51.17
2017-09-16T14:55:02.285Z,51.90
2017-09-16T14:57:29.942Z,52.08
2017-09-16T14:59:57.608Z,52.26
2017-09-16T15:02:26.076Z,52.34
2017-09-16T15:04:54.422Z,52.68
2017-09-16T15:07:22.083Z,53.34
2017-09-16T15:09:49.704Z,53.75
2017-09-16T15:12:17.998Z,53.41
2017-09-16T15:14:46.151Z,54.34
2017-09-16T15:17:13.884Z,54.25
2017-09-16T15:19:42.213Z,54.64
2017-09-16T15:22:10.548Z,55.05
2017-09-16T15:24:39.900Z,54.55
2017-09-16T15:27:07.570Z,54.08
2017-09-16T15:29:35.202Z,54.43
2017-09-16T15:32:02.926Z,54.89
2017-09-16T15:34:30.562Z,55.46
2017-09-16T15:36:58.331Z,56.38
2017-09-16T15:39:26.038Z,59.18
2017-09-16T15:41:54.380Z,60.86
2017-09-16T15:44:23.472Z,62.60
2017-09-16T15:46:51.225Z,63.90
2017-09-16T15:49:18.888Z,66.58
2017-09-16T15:51:46.536Z,67.59
2017-09-16T15:54:14.155Z,68.09
2017-09-16T15:56:42.148Z,68.78
2017-09-16T15:59:10.555Z,68.59
2017-09-16T16:01:39.192Z,69.13
2017-09-16T16:04:06.842Z,68.54
2017-09-16T16:06:34.472Z,69.30
2017-09-16T16:09:02.138Z,70.01
2017-09-16T16:11:29.855Z,69.85
2017-09-16T16:13:58.330Z,70.64
2017-09-16T16:16:25.972Z,71.70
2017-09-16T16:18:53.647Z,72.33
2017-09-16T16:21:21.302Z,73.16
2017-09-16T16:23:48.945Z,73.01
2017-09-16T16:26:16.604Z,72.81
2017-09-16T16:28:44.292Z,72.64
2017-09-16T16:31:12.844Z,72.90
2017-09-16T16:33:40.984Z,72.72
2017-09-16T16:36:08.620Z,72.05
2017-09-16T16:38:36.354Z,72.01
2017-09-16T16:41:04.023Z,71.82
2017-09-16T16:43:31.704Z,71.01
2017-09-16T16:45:59.328Z,69.96
2017-09-16T16:48:27.652Z,70.02
2017-09-16T16:50:55.248Z,71.37
2017-09-16T16:53:23.636Z,70.48
2017-09-16T16:55:52.119Z,69.29
2017-09-16T16:58:20.586Z,68.51
2017-09-16T17:00:48.253Z,68.21
2017-09-16T17:03:17.167Z,67.80
2017-09-16T17:05:44.800Z,68.25
2017-09-16T17:08:12.485Z,68.58
2017-09-16T17:10:40.100Z,68.97
2017-09-16T17:13:07.817Z,69.62
2017-09-16T17:15:35.460Z,70.36
2017-09-16T17:18:03.806Z,70.97
2017-09-16T17:20:31.684Z,71.93
2017-09-16T17:23:00.245Z,72.74
2017-09-16T17:25:28.559Z,73.25
2017-09-16T17:27:56.541Z,73.64
2017-09-16T17:30:24.270Z,73.79
2017-09-16T17:32:51.933Z,73.72
2017-09-16T17:35:19.772Z,73.98
2017-09-16T17:37:47.424Z,74.01
2017-09-16T17:40:15.164Z,74.53
2017-09-16T17:42:43.219Z,74.97
2017-09-16T17:45:10.931Z,75.52
2017-09-16T17:47:40.150Z,75.92
2017-09-16T17:50:08.573Z,76.58
2017-09-16T17:52:36.300Z,76.06
2017-09-16T17:55:04.652Z,76.18
2017-09-16T17:57:32.320Z,76.06
2017-09-16T17:59:59.986Z,76.46
2017-09-16T18:02:27.628Z,76.27
2017-09-16T18:04:57.328Z,76.59
2017-09-16T18:07:25.621Z,76.79
2017-09-16T18:09:53.410Z,76.81
2017-09-16T18:12:24.617Z,77.22
2017-09-16T18:14:53.130Z,77.79
2017-09-16T18:17:20.750Z,78.50
2017-09-16T18:19:48.867Z,78.85
2017-09-16T18:22:17.254Z,79.81
2017-09-16T18:24:45.448Z,80.26
2017-09-16T18:27:13.502Z,80.41
2017-09-16T18:29:42.307Z,80.31
2017-09-16T18:32:10.192Z,80.65
2017-09-16T18:34:38.473Z,80.72
2017-09-16T18:37:06.807Z,80.80
2017-09-16T18:39:34.610Z,81.24
2017-09-16T18:42:02.287Z,82.00
2017-09-16T18:44:30.691Z,82.75
2017-09-16T18:46:58.378Z,83.37
2017-09-16T18:49:26.047Z,83.76
2017-09-16T18:51:54.005Z,83.65
2017-09-16T18:54:21.696Z,83.38
2017-09-16T18:56:49.387Z,83.61
2017-09-16T18:59:17.113Z,83.92
2017-09-16T19:01:44.967Z,84.05
2017-09-16T19:04:12.717Z,83.98
2017-09-16T19:06:40.388Z,83.95
2017-09-16T19:09:08.589Z,83.94
2017-09-16T19:11:36.222Z,84.30
2017-09-16T19:14:04.687Z,84.15
2017-09-16T19:16:32.388Z,83.85
2017-09-16T19:19:01.042Z,84.00
2017-09-16T19:21:29.603Z,84.20
2017-09-16T19:23:57.295Z,84.31
2017-09-16T19:26:25.662Z,84.29
2017-09-16T19:28:54.513Z,84.45
2017-09-16T19:31:22.201Z,84.24
2017-09-16T19:33:50.206Z,84.26
2017-09-16T19:36:17.905Z,84.43
2017-09-16T19:38:45.651Z,84.41
2017-09-16T19:41:13.328Z,84.85
2017-09-16T19:43:41.712Z,84.90
2017-09-16T19:46:09.369Z,84.57
2017-09-16T19:48:37.778Z,84.39
2017-09-16T19:51:05.481Z,84.46
2017-09-16T19:53:33.223Z,84.73
2017-09-16T19:56:00.971Z,84.83
2017-09-16T19:58:29.024Z,84.70
2017-09-16T20:00:57.520Z,84.79
2017-09-16T20:03:25.478Z,85.23
2017-09-16T20:05:53.132Z,85.41
2017-09-16T20:08:20.786Z,85.62
2017-09-16T20:10:48.442Z,85.51
2017-09-16T20:13:16.121Z,85.30
2017-09-16T20:15:44.544Z,84.94
2017-09-16T20:18:13.182Z,84.84
2017-09-16T20:20:40.890Z,84.34
2017-09-16T20:23:08.832Z,84.38
2017-09-16T20:25:36.510Z,84.22
2017-09-16T20:28:04.198Z,84.66
2017-09-16T20:30:32.081Z,84.60
2017-09-16T20:33:00.460Z,84.31
2017-09-16T20:35:28.184Z,84.65
2017-09-16T20:37:56.911Z,83.64
2017-09-16T20:40:24.552Z,82.83
2017-09-16T20:42:52.212Z,82.67
2017-09-16T20:45:19.853Z,82.37
2017-09-16T20:47:47.487Z,82.21
2017-09-16T20:50:16.072Z,81.92
2017-09-16T20:52:43.748Z,81.40
2017-09-16T20:55:12.528Z,80.71
2017-09-16T20:57:45.938Z,80.63
2017-09-16T21:00:16.465Z,80.52
2017-09-16T21:02:45.934Z,80.50
2017-09-16T21:05:15.167Z,80.47
2017-09-16T21:07:45.182Z,80.06
2017-09-16T21:10:12.874Z,79.93
2017-09-16T21:12:40.980Z,79.82
2017-09-16T21:15:09.268Z,80.15
2017-09-16T21:17:36.885Z,80.51
2017-09-16T21:20:04.558Z,81.28
2017-09-16T21:22:32.144Z,81.71
2017-09-16T21:24:59.785Z,82.17
2017-09-16T21:27:27.424Z,82.48
2017-09-16T21:29:55.090Z,83.53
2017-09-16T21:32:22.991Z,85.25
2017-09-16T21:34:50.594Z,86.47
2017-09-16T21:37:18.256Z,86.36
2017-09-16T21:39:45.877Z,86.95
2017-09-16T21:42:13.537Z,87.58
2017-09-16T21:44:41.164Z,87.70
2017-09-16T21:47:08.836Z,87.51
2017-09-16T21:49:36.534Z,87.76
2017-09-16T21:52:04.189Z,88.16
2017-09-16T21:54:31.819Z,90.88
2017-09-16T21:56:59.484Z,90.05
2017-09-16T21:59:27.170Z,89.95
2017-09-16T22:01:55.558Z,90.93
2017-09-16T22:04:23.241Z,87.63
2017-09-16T22:06:50.942Z,87.61
2017-09-16T22:09:19.337Z,88.15
2017-09-16T22:11:47.075Z,88.53
2017-09-16T22:14:15.443Z,89.05
2017-09-16T22:16:43.122Z,89.29
2017-09-16T22:19:11.785Z,88.86
2017-09-16T22:21:39.497Z,88.92
2017-09-16T22:24:07.432Z,92.15
2017-09-16T22:26:35.458Z,92.80
2017-09-16T22:29:03.100Z,88.77
2017-09-16T22:31:31.450Z,89.20
2017-09-16T22:34:00.071Z,86.89
2017-09-16T22:36:27.769Z,83.68
2017-09-16T22:38:55.379Z,84.45
2017-09-16T22:41:23.035Z,84.78
2017-09-16T22:43:50.687Z,85.49
2017-09-16T22:46:18.816Z,86.43
2017-09-16T22:48:46.705Z,87.09
2017-09-16T22:51:14.401Z,86.82
2017-09-16T22:53:42.061Z,87.45
2017-09-16T22:56:09.808Z,87.63
2017-09-16T22:58:37.484Z,87.98
2017-09-16T23:01:05.192Z,87.58
2017-09-16T23:03:32.927Z,87.40
2017-09-16T23:06:00.634Z,87.70
2017-09-16T23:08:28.246Z,88.04
2017-09-16T23:10:55.922Z,88.02
2017-09-16T23:13:24.376Z,87.84
2017-09-16T23:15:51.976Z,87.46
2017-09-16T23:18:19.673Z,87.71
2017-09-16T23:20:47.976Z,87.36
2017-09-16T23:23:16.509Z,87.29
2017-09-16T23:25:44.981Z,87.60
2017-09-16T23:28:12.628Z,88.27
2017-09-16T23:30:41.207Z,87.98
2017-09-16T23:33:09.579Z,88.41
2017-09-16T23:35:38.525Z,88.34
2017-09-16T23:38:06.796Z,88.02
2017-09-16T23:40:34.440Z,88.49
2017-09-16T23:43:02.095Z,88.82
2017-09-16T23:45:29.726Z,88.90
2017-09-16T23:47:58.069Z,89.11
2017-09-16T23:50:26.351Z,88.92
2017-09-16T23:52:54.722Z,88.52
2017-09-16T23:55:23.385Z,88.79
2017-09-16T23:57:51.000Z,88.90
